Aviation Digital Data Service (ADDS)

Output produced by METARs form (0955 UTC 25 March 2019)
found at http://aviationweather.gov/metar/data/
 
KSAV 250853Z AUTO 17006KT 10SM SCT075 14/14 A3010 RMK AO2 SLP193 T01440139 58022
KSAV 250524Z 2506/2606 16003KT P6SM FEW250 
     FM251400 19009KT P6SM SCT250 
     FM252000 20012G18KT P6SM FEW050 BKN250 
     FM260100 21009KT P6SM SHRA SCT040 BKN060
       
KSVN 250856Z 17003KT 10SM BKN075 14/13 A3008 RMK AO2A SLP189 T01410131 57021 $
TAF KSVN 250400Z 2504/2610 16009KT 9999 FEW045 FEW250 QNH3016INS 
     BECMG 2505/2506 18006KT 8000 BR SCT030 QNH3009INS 
     BECMG 2513/2514 21009KT 9999 NSW BKN035 QNH3003INS 
     BECMG 2607/2608 35009KT 9999 BKN009 QNH2995INS TX26/2520Z TN12/2511Z
       
KLHW 250856Z AUTO 00000KT 10SM OVC070 13/12 A3009 RMK AO2 SLP192 T01250117 57019 $
KTBR 250935Z AUTO 00000KT 10SM OVC070 12/12 A3009 RMK AO2 T01230121
KVDI 250935Z AUTO 00000KT 10SM BKN065 13/11 A3008 RMK AO2
KJYL 250935Z AUTO 00000KT 10SM BKN075 14/14 A3010 RMK AO2 T01420140
KDBN 250930Z AUTO 00000KT 10SM 08/08 A3009 RMK AO2
KJES 250940Z AUTO 00000KT 10SM OVC065 12/11 A3010 RMK AO2
KSSI 250853Z AUTO 00000KT 10SM BKN065 15/13 A3011 RMK AO2 SLP197 T01500133 56022
KSSI 250536Z 2506/2606 13005KT P6SM FEW050 SCT250 
     FM250900 18003KT P6SM SCT060 SCT250 
     FM251400 21008KT P6SM SCT030 BKN060 
     FM260000 19008KT P6SM FEW060 SCT250
       
KBQK 250935Z AUTO 00000KT 3SM BR BKN065 13/13 A3012 RMK AO2
KAYS 250935Z AUTO 00000KT 10SM OVC065 14/11 A3010 RMK AO2 T01370111
KNBC 250856Z AUTO 00000KT 10SM CLR 14/13 A3011 RMK AO2 SLP195 T01440133 58019
TAF KNBC 2509/2609 VRB05KT 9999 SKC QNH3008INS 
     FM251300 21010KT 9999 SCT040 BKN060 QNH3004INS 
     BECMG 2518/2520 21012G22KT VCSH BKN040 QNH2991INS 
     TEMPO 2522/2604 VRB06KT 4800 -RA BR BKN015 OVC040 T24/2518Z T13/2609Z
       
KHXD 250935Z AUTO 19004KT 10SM CLR 15/14 A3011 RMK AO2